sensor_id;sensor_type;location;lat;lon;timestamp;temperature;humidity
8465;DHT22;4269;52.458;13.430;2023-07-20T00:02:23;26.90;99.90
8465;DHT22;4269;52.458;13.430;2023-07-20T00:04:50;27.00;99.90
8465;DHT22;4269;52.458;13.430;2023-07-20T00:07:16;27.00;99.90
8465;DHT22;4269;52.458;13.430;2023-07-20T00:09:43;27.10;99.90
8465;DHT22;4269;52.458;13.430;2023-07-20T00:12:11;27.00;99.90
8465;DHT22;4269;52.458;13.430;2023-07-20T00:14:37;27.20;99.90
8465;DHT22;4269;52.458;13.430;2023-07-20T00:17:04;27.20;99.90
8465;DHT22;4269;52.458;13.430;2023-07-20T00:19:31;27.00;99.90
8465;DHT22;4269;52.458;13.430;2023-07-20T00:21:57;27.10;99.90
8465;DHT22;4269;52.458;13.430;2023-07-20T00:24:24;27.10;99.90
8465;DHT22;4269;52.458;13.430;2023-07-20T00:26:51;27.00;99.90
8465;DHT22;4269;52.458;13.430;2023-07-20T00:29:19;27.10;99.90
8465;DHT22;4269;52.458;13.430;2023-07-20T00:31:45;27.10;99.90
8465;DHT22;4269;52.458;13.430;2023-07-20T00:34:12;27.40;99.90
8465;DHT22;4269;52.458;13.430;2023-07-20T00:36:38;27.10;99.90
8465;DHT22;4269;52.458;13.430;2023-07-20T00:39:05;27.10;99.90
8465;DHT22;4269;52.458;13.430;2023-07-20T00:41:31;27.10;99.90
8465;DHT22;4269;52.458;13.430;2023-07-20T00:43:58;27.10;99.90
8465;DHT22;4269;52.458;13.430;2023-07-20T00:46:26;27.10;99.90
8465;DHT22;4269;52.458;13.430;2023-07-20T00:48:53;26.90;99.90
8465;DHT22;4269;52.458;13.430;2023-07-20T00:51:20;27.10;99.90
8465;DHT22;4269;52.458;13.430;2023-07-20T00:53:47;27.10;99.90
8465;DHT22;4269;52.458;13.430;2023-07-20T00:56:14;27.10;99.90
8465;DHT22;4269;52.458;13.430;2023-07-20T01:01:07;26.80;99.90
8465;DHT22;4269;52.458;13.430;2023-07-20T01:03:37;27.10;99.90
8465;DHT22;4269;52.458;13.430;2023-07-20T01:06:12;27.00;99.90
8465;DHT22;4269;52.458;13.430;2023-07-20T01:08:47;27.10;99.90
8465;DHT22;4269;52.458;13.430;2023-07-20T01:11:23;27.10;99.90
8465;DHT22;4269;52.458;13.430;2023-07-20T01:13:55;27.10;99.90
8465;DHT22;4269;52.458;13.430;2023-07-20T01:16:21;27.00;99.90
8465;DHT22;4269;52.458;13.430;2023-07-20T01:18:49;27.10;99.90
8465;DHT22;4269;52.458;13.430;2023-07-20T01:21:21;27.10;99.90
8465;DHT22;4269;52.458;13.430;2023-07-20T01:24:19;27.10;99.90
8465;DHT22;4269;52.458;13.430;2023-07-20T01:27:14;27.10;99.90
8465;DHT22;4269;52.458;13.430;2023-07-20T01:29:55;27.10;99.90
8465;DHT22;4269;52.458;13.430;2023-07-20T01:32:31;27.10;99.90
8465;DHT22;4269;52.458;13.430;2023-07-20T01:34:59;26.80;99.90
8465;DHT22;4269;52.458;13.430;2023-07-20T01:37:27;27.10;99.90
8465;DHT22;4269;52.458;13.430;2023-07-20T01:39:55;27.10;99.90
8465;DHT22;4269;52.458;13.430;2023-07-20T01:42:22;27.10;99.90
8465;DHT22;4269;52.458;13.430;2023-07-20T01:44:50;27.00;99.90
8465;DHT22;4269;52.458;13.430;2023-07-20T01:47:18;27.10;99.90
8465;DHT22;4269;52.458;13.430;2023-07-20T01:49:45;27.10;99.90
8465;DHT22;4269;52.458;13.430;2023-07-20T01:52:12;27.20;99.90
8465;DHT22;4269;52.458;13.430;2023-07-20T01:57:05;27.10;99.90
8465;DHT22;4269;52.458;13.430;2023-07-20T01:59:32;27.10;99.90
8465;DHT22;4269;52.458;13.430;2023-07-20T02:01:58;27.20;99.90
8465;DHT22;4269;52.458;13.430;2023-07-20T02:04:25;27.00;99.90
8465;DHT22;4269;52.458;13.430;2023-07-20T02:06:53;27.10;99.90
8465;DHT22;4269;52.458;13.430;2023-07-20T02:11:46;27.20;99.90
8465;DHT22;4269;52.458;13.430;2023-07-20T02:16:40;27.10;99.90
8465;DHT22;4269;52.458;13.430;2023-07-20T02:19:06;26.90;99.90
8465;DHT22;4269;52.458;13.430;2023-07-20T02:21:33;27.10;99.90
8465;DHT22;4269;52.458;13.430;2023-07-20T02:24:01;27.10;99.90
8465;DHT22;4269;52.458;13.430;2023-07-20T02:26:27;27.10;99.90
8465;DHT22;4269;52.458;13.430;2023-07-20T02:28:54;27.10;99.90
8465;DHT22;4269;52.458;13.430;2023-07-20T02:31:20;27.00;99.90
8465;DHT22;4269;52.458;13.430;2023-07-20T02:33:47;27.00;99.90
8465;DHT22;4269;52.458;13.430;2023-07-20T02:36:13;27.30;99.90
8465;DHT22;4269;52.458;13.430;2023-07-20T02:38:39;26.60;99.90
8465;DHT22;4269;52.458;13.430;2023-07-20T02:41:07;26.90;99.90
8465;DHT22;4269;52.458;13.430;2023-07-20T02:43:34;27.10;99.90
8465;DHT22;4269;52.458;13.430;2023-07-20T02:46:00;27.10;99.90
8465;DHT22;4269;52.458;13.430;2023-07-20T02:48:27;27.00;99.90
8465;DHT22;4269;52.458;13.430;2023-07-20T02:50:53;26.90;99.90
8465;DHT22;4269;52.458;13.430;2023-07-20T02:53:20;27.10;99.90
8465;DHT22;4269;52.458;13.430;2023-07-20T02:55:46;27.10;99.90
8465;DHT22;4269;52.458;13.430;2023-07-20T02:58:15;27.00;99.90
8465;DHT22;4269;52.458;13.430;2023-07-20T03:00:42;27.10;99.90
8465;DHT22;4269;52.458;13.430;2023-07-20T03:03:09;27.10;99.90
8465;DHT22;4269;52.458;13.430;2023-07-20T03:05:35;27.10;99.90
8465;DHT22;4269;52.458;13.430;2023-07-20T03:08:03;27.00;99.90
8465;DHT22;4269;52.458;13.430;2023-07-20T03:10:31;28.10;99.90
8465;DHT22;4269;52.458;13.430;2023-07-20T03:12:58;27.00;99.90
8465;DHT22;4269;52.458;13.430;2023-07-20T03:15:26;27.50;99.90
8465;DHT22;4269;52.458;13.430;2023-07-20T03:17:52;27.00;99.90
8465;DHT22;4269;52.458;13.430;2023-07-20T03:20:19;27.10;99.90
8465;DHT22;4269;52.458;13.430;2023-07-20T03:22:46;27.10;99.90
8465;DHT22;4269;52.458;13.430;2023-07-20T03:25:13;27.00;99.90
8465;DHT22;4269;52.458;13.430;2023-07-20T03:27:39;27.00;99.90
8465;DHT22;4269;52.458;13.430;2023-07-20T03:30:07;26.70;99.90
8465;DHT22;4269;52.458;13.430;2023-07-20T03:32:36;26.80;99.90
8465;DHT22;4269;52.458;13.430;2023-07-20T03:35:03;27.00;99.90
8465;DHT22;4269;52.458;13.430;2023-07-20T03:37:30;26.80;99.90
8465;DHT22;4269;52.458;13.430;2023-07-20T03:39:56;26.60;99.90
8465;DHT22;4269;52.458;13.430;2023-07-20T03:44:49;27.00;99.90
8465;DHT22;4269;52.458;13.430;2023-07-20T03:47:16;27.10;99.90
8465;DHT22;4269;52.458;13.430;2023-07-20T03:49:44;27.00;99.90
8465;DHT22;4269;52.458;13.430;2023-07-20T03:52:11;27.00;99.90
8465;DHT22;4269;52.458;13.430;2023-07-20T03:54:37;27.10;99.90
8465;DHT22;4269;52.458;13.430;2023-07-20T03:57:04;27.00;99.90
8465;DHT22;4269;52.458;13.430;2023-07-20T03:59:30;27.00;99.90
8465;DHT22;4269;52.458;13.430;2023-07-20T04:01:58;27.00;99.90
8465;DHT22;4269;52.458;13.430;2023-07-20T04:04:25;27.00;99.90
8465;DHT22;4269;52.458;13.430;2023-07-20T04:06:53;27.10;99.90
8465;DHT22;4269;52.458;13.430;2023-07-20T04:09:19;27.10;99.90
8465;DHT22;4269;52.458;13.430;2023-07-20T04:11:46;27.00;99.90
8465;DHT22;4269;52.458;13.430;2023-07-20T04:14:12;27.20;99.90
8465;DHT22;4269;52.458;13.430;2023-07-20T04:19:05;27.30;99.90
8465;DHT22;4269;52.458;13.430;2023-07-20T04:21:32;27.10;99.90
8465;DHT22;4269;52.458;13.430;2023-07-20T04:24:00;27.10;99.90
8465;DHT22;4269;52.458;13.430;2023-07-20T04:26:26;27.20;99.90
8465;DHT22;4269;52.458;13.430;2023-07-20T04:28:53;27.00;99.90
8465;DHT22;4269;52.458;13.430;2023-07-20T04:31:19;26.80;99.90
8465;DHT22;4269;52.458;13.430;2023-07-20T04:33:46;27.00;99.90
8465;DHT22;4269;52.458;13.430;2023-07-20T04:36:12;27.00;99.90
8465;DHT22;4269;52.458;13.430;2023-07-20T04:38:41;26.40;99.90
8465;DHT22;4269;52.458;13.430;2023-07-20T04:41:09;27.00;99.90
8465;DHT22;4269;52.458;13.430;2023-07-20T04:43:40;27.00;99.90
8465;DHT22;4269;52.458;13.430;2023-07-20T04:46:07;27.10;99.90
8465;DHT22;4269;52.458;13.430;2023-07-20T04:53:27;27.00;99.90
8465;DHT22;4269;52.458;13.430;2023-07-20T04:58:22;27.10;99.90
8465;DHT22;4269;52.458;13.430;2023-07-20T05:00:49;27.40;99.90
8465;DHT22;4269;52.458;13.430;2023-07-20T05:03:16;27.00;99.90
8465;DHT22;4269;52.458;13.430;2023-07-20T05:08:09;27.00;99.90
8465;DHT22;4269;52.458;13.430;2023-07-20T05:13:02;27.10;99.90
8465;DHT22;4269;52.458;13.430;2023-07-20T05:15:32;27.10;99.90
8465;DHT22;4269;52.458;13.430;2023-07-20T05:17:59;27.10;99.90
8465;DHT22;4269;52.458;13.430;2023-07-20T05:20:25;27.10;99.90
8465;DHT22;4269;52.458;13.430;2023-07-20T05:22:52;27.10;99.90
8465;DHT22;4269;52.458;13.430;2023-07-20T05:25:19;27.10;99.90
8465;DHT22;4269;52.458;13.430;2023-07-20T05:27:48;27.10;99.90
8465;DHT22;4269;52.458;13.430;2023-07-20T05:30:14;27.10;99.90
8465;DHT22;4269;52.458;13.430;2023-07-20T05:32:42;27.10;99.90
8465;DHT22;4269;52.458;13.430;2023-07-20T05:35:10;26.70;99.90
8465;DHT22;4269;52.458;13.430;2023-07-20T05:40:05;27.10;99.90
8465;DHT22;4269;52.458;13.430;2023-07-20T05:45:00;27.10;99.90
8465;DHT22;4269;52.458;13.430;2023-07-20T05:47:26;27.10;99.90
8465;DHT22;4269;52.458;13.430;2023-07-20T05:49:54;27.10;99.90
8465;DHT22;4269;52.458;13.430;2023-07-20T05:52:20;27.10;99.90
8465;DHT22;4269;52.458;13.430;2023-07-20T05:54:47;27.10;99.90
8465;DHT22;4269;52.458;13.430;2023-07-20T05:57:13;27.30;99.90
8465;DHT22;4269;52.458;13.430;2023-07-20T05:59:40;27.20;99.90
8465;DHT22;4269;52.458;13.430;2023-07-20T06:02:09;27.20;99.90
8465;DHT22;4269;52.458;13.430;2023-07-20T06:04:36;27.20;99.90
8465;DHT22;4269;52.458;13.430;2023-07-20T06:07:04;27.20;99.90
8465;DHT22;4269;52.458;13.430;2023-07-20T06:09:30;27.20;99.90
8465;DHT22;4269;52.458;13.430;2023-07-20T06:11:57;27.20;99.90
8465;DHT22;4269;52.458;13.430;2023-07-20T06:14:23;27.20;99.90
8465;DHT22;4269;52.458;13.430;2023-07-20T06:16:50;27.20;99.90
8465;DHT22;4269;52.458;13.430;2023-07-20T06:19:16;27.20;99.90
8465;DHT22;4269;52.458;13.430;2023-07-20T06:21:43;27.20;99.90
8465;DHT22;4269;52.458;13.430;2023-07-20T06:24:11;27.20;99.90
8465;DHT22;4269;52.458;13.430;2023-07-20T06:26:37;27.20;99.90
8465;DHT22;4269;52.458;13.430;2023-07-20T06:29:04;27.20;99.90
8465;DHT22;4269;52.458;13.430;2023-07-20T06:31:31;27.20;99.90
8465;DHT22;4269;52.458;13.430;2023-07-20T06:33:58;27.30;99.90
8465;DHT22;4269;52.458;13.430;2023-07-20T06:36:25;27.30;99.90
8465;DHT22;4269;52.458;13.430;2023-07-20T06:38:52;27.30;99.90
8465;DHT22;4269;52.458;13.430;2023-07-20T06:41:20;27.50;99.90
8465;DHT22;4269;52.458;13.430;2023-07-20T06:43:46;27.50;99.90
8465;DHT22;4269;52.458;13.430;2023-07-20T06:46:13;26.70;99.90
8465;DHT22;4269;52.458;13.430;2023-07-20T06:48:40;25.40;99.90
8465;DHT22;4269;52.458;13.430;2023-07-20T06:51:08;24.20;99.90
8465;DHT22;4269;52.458;13.430;2023-07-20T06:53:34;23.30;99.90
8465;DHT22;4269;52.458;13.430;2023-07-20T06:56:01;22.50;99.90
8465;DHT22;4269;52.458;13.430;2023-07-20T06:58:29;21.70;99.90
8465;DHT22;4269;52.458;13.430;2023-07-20T07:00:55;21.00;99.90
8465;DHT22;4269;52.458;13.430;2023-07-20T07:03:22;20.70;99.90
8465;DHT22;4269;52.458;13.430;2023-07-20T07:05:49;20.60;1.00
8465;DHT22;4269;52.458;13.430;2023-07-20T07:08:16;20.90;1.00
8465;DHT22;4269;52.458;13.430;2023-07-20T07:10:43;20.60;99.90
8465;DHT22;4269;52.458;13.430;2023-07-20T07:13:10;20.20;99.90
8465;DHT22;4269;52.458;13.430;2023-07-20T07:15:37;20.50;99.90
8465;DHT22;4269;52.458;13.430;2023-07-20T07:18:04;20.20;99.90
8465;DHT22;4269;52.458;13.430;2023-07-20T07:20:30;20.40;99.90
8465;DHT22;4269;52.458;13.430;2023-07-20T07:22:57;20.50;99.90
8465;DHT22;4269;52.458;13.430;2023-07-20T07:25:23;20.70;99.90
8465;DHT22;4269;52.458;13.430;2023-07-20T07:27:50;20.90;99.90
8465;DHT22;4269;52.458;13.430;2023-07-20T07:30:18;21.10;99.90
8465;DHT22;4269;52.458;13.430;2023-07-20T07:32:46;21.30;99.90
8465;DHT22;4269;52.458;13.430;2023-07-20T07:35:12;21.30;99.90
8465;DHT22;4269;52.458;13.430;2023-07-20T07:37:39;22.00;99.90
8465;DHT22;4269;52.458;13.430;2023-07-20T07:40:07;22.30;99.90
8465;DHT22;4269;52.458;13.430;2023-07-20T07:42:33;22.50;99.90
8465;DHT22;4269;52.458;13.430;2023-07-20T07:45:00;23.00;99.90
8465;DHT22;4269;52.458;13.430;2023-07-20T07:47:27;23.30;99.90
8465;DHT22;4269;52.458;13.430;2023-07-20T07:49:55;23.60;99.90
8465;DHT22;4269;52.458;13.430;2023-07-20T07:54:49;24.10;99.90
8465;DHT22;4269;52.458;13.430;2023-07-20T07:57:16;24.30;99.90
8465;DHT22;4269;52.458;13.430;2023-07-20T07:59:42;24.60;99.90
8465;DHT22;4269;52.458;13.430;2023-07-20T08:02:09;24.80;99.90
8465;DHT22;4269;52.458;13.430;2023-07-20T08:04:35;24.90;99.90
8465;DHT22;4269;52.458;13.430;2023-07-20T08:07:04;25.10;99.90
8465;DHT22;4269;52.458;13.430;2023-07-20T08:09:30;25.20;99.90
8465;DHT22;4269;52.458;13.430;2023-07-20T08:11:58;25.10;99.90
8465;DHT22;4269;52.458;13.430;2023-07-20T08:16:51;25.70;99.90
8465;DHT22;4269;52.458;13.430;2023-07-20T08:19:20;25.80;99.90
8465;DHT22;4269;52.458;13.430;2023-07-20T08:21:46;25.90;99.90
8465;DHT22;4269;52.458;13.430;2023-07-20T08:24:14;26.00;99.90
8465;DHT22;4269;52.458;13.430;2023-07-20T08:26:40;26.10;99.90
8465;DHT22;4269;52.458;13.430;2023-07-20T08:29:07;26.20;99.90
8465;DHT22;4269;52.458;13.430;2023-07-20T08:31:33;26.20;99.90
8465;DHT22;4269;52.458;13.430;2023-07-20T08:34:00;26.50;99.90
8465;DHT22;4269;52.458;13.430;2023-07-20T08:36:26;26.40;99.90
8465;DHT22;4269;52.458;13.430;2023-07-20T08:38:53;26.50;99.90
8465;DHT22;4269;52.458;13.430;2023-07-20T08:41:21;26.60;99.90
8465;DHT22;4269;52.458;13.430;2023-07-20T08:43:47;26.60;99.90
8465;DHT22;4269;52.458;13.430;2023-07-20T08:46:14;26.60;99.90
8465;DHT22;4269;52.458;13.430;2023-07-20T08:48:43;26.70;99.90
8465;DHT22;4269;52.458;13.430;2023-07-20T08:51:10;26.80;99.90
8465;DHT22;4269;52.458;13.430;2023-07-20T08:53:38;26.90;99.90
8465;DHT22;4269;52.458;13.430;2023-07-20T08:56:05;27.00;99.90
8465;DHT22;4269;52.458;13.430;2023-07-20T08:58:34;26.90;99.90
8465;DHT22;4269;52.458;13.430;2023-07-20T09:01:01;27.10;99.90
8465;DHT22;4269;52.458;13.430;2023-07-20T09:03:29;27.10;99.90
8465;DHT22;4269;52.458;13.430;2023-07-20T09:05:55;27.10;99.90
8465;DHT22;4269;52.458;13.430;2023-07-20T09:08:22;27.20;99.90
8465;DHT22;4269;52.458;13.430;2023-07-20T09:10:48;27.20;99.90
8465;DHT22;4269;52.458;13.430;2023-07-20T09:13:15;27.00;99.90
8465;DHT22;4269;52.458;13.430;2023-07-20T09:15:47;27.30;99.90
8465;DHT22;4269;52.458;13.430;2023-07-20T09:18:23;27.50;99.90
8465;DHT22;4269;52.458;13.430;2023-07-20T09:20:50;27.40;99.90
8465;DHT22;4269;52.458;13.430;2023-07-20T09:23:16;27.20;99.90
8465;DHT22;4269;52.458;13.430;2023-07-20T09:25:43;27.40;99.90
8465;DHT22;4269;52.458;13.430;2023-07-20T09:28:11;27.40;99.90
8465;DHT22;4269;52.458;13.430;2023-07-20T09:30:37;27.50;99.90
8465;DHT22;4269;52.458;13.430;2023-07-20T09:33:05;27.00;99.90
8465;DHT22;4269;52.458;13.430;2023-07-20T09:35:44;27.40;99.90
8465;DHT22;4269;52.458;13.430;2023-07-20T09:38:10;27.40;99.90
8465;DHT22;4269;52.458;13.430;2023-07-20T09:40:38;27.40;99.90
8465;DHT22;4269;52.458;13.430;2023-07-20T09:43:08;27.40;99.90
8465;DHT22;4269;52.458;13.430;2023-07-20T09:45:35;27.40;99.90
8465;DHT22;4269;52.458;13.430;2023-07-20T09:48:07;27.30;99.90
8465;DHT22;4269;52.458;13.430;2023-07-20T09:50:34;27.50;99.90
8465;DHT22;4269;52.458;13.430;2023-07-20T09:53:01;27.50;99.90
8465;DHT22;4269;52.458;13.430;2023-07-20T09:55:29;27.50;99.90
8465;DHT22;4269;52.458;13.430;2023-07-20T09:57:56;27.50;99.90
8465;DHT22;4269;52.458;13.430;2023-07-20T10:00:23;27.80;99.90
8465;DHT22;4269;52.458;13.430;2023-07-20T10:02:51;27.60;99.90
8465;DHT22;4269;52.458;13.430;2023-07-20T10:05:20;27.50;99.90
8465;DHT22;4269;52.458;13.430;2023-07-20T10:07:48;27.60;99.90
8465;DHT22;4269;52.458;13.430;2023-07-20T10:10:16;27.50;99.90
8465;DHT22;4269;52.458;13.430;2023-07-20T10:12:44;27.60;99.90
8465;DHT22;4269;52.458;13.430;2023-07-20T10:15:18;27.60;99.90
8465;DHT22;4269;52.458;13.430;2023-07-20T10:17:53;27.60;99.90
8465;DHT22;4269;52.458;13.430;2023-07-20T10:20:25;27.70;99.90
8465;DHT22;4269;52.458;13.430;2023-07-20T10:22:54;27.40;99.90
8465;DHT22;4269;52.458;13.430;2023-07-20T10:25:22;28.00;99.90
8465;DHT22;4269;52.458;13.430;2023-07-20T10:27:49;27.70;99.90
8465;DHT22;4269;52.458;13.430;2023-07-20T10:30:17;27.60;99.90
8465;DHT22;4269;52.458;13.430;2023-07-20T10:32:44;27.70;99.90
8465;DHT22;4269;52.458;13.430;2023-07-20T10:35:15;27.80;99.90
8465;DHT22;4269;52.458;13.430;2023-07-20T10:37:51;27.80;99.90
8465;DHT22;4269;52.458;13.430;2023-07-20T10:40:28;27.80;99.90
8465;DHT22;4269;52.458;13.430;2023-07-20T10:42:59;27.70;99.90
8465;DHT22;4269;52.458;13.430;2023-07-20T10:45:52;27.80;99.90
8465;DHT22;4269;52.458;13.430;2023-07-20T10:48:21;27.50;99.90
8465;DHT22;4269;52.458;13.430;2023-07-20T10:51:09;27.80;99.90
8465;DHT22;4269;52.458;13.430;2023-07-20T10:53:37;27.60;99.90
8465;DHT22;4269;52.458;13.430;2023-07-20T10:56:06;27.80;99.90
8465;DHT22;4269;52.458;13.430;2023-07-20T10:58:33;27.40;99.90
8465;DHT22;4269;52.458;13.430;2023-07-20T11:01:01;28.10;99.90
8465;DHT22;4269;52.458;13.430;2023-07-20T11:03:30;28.00;99.90
8465;DHT22;4269;52.458;13.430;2023-07-20T11:05:58;27.90;99.90
8465;DHT22;4269;52.458;13.430;2023-07-20T11:08:41;27.60;99.90
8465;DHT22;4269;52.458;13.430;2023-07-20T11:11:25;27.90;99.90
8465;DHT22;4269;52.458;13.430;2023-07-20T11:13:58;27.90;99.90
8465;DHT22;4269;52.458;13.430;2023-07-20T11:16:38;27.90;99.90
8465;DHT22;4269;52.458;13.430;2023-07-20T11:19:13;27.80;99.90
8465;DHT22;4269;52.458;13.430;2023-07-20T11:21:42;27.90;99.90
8465;DHT22;4269;52.458;13.430;2023-07-20T11:24:10;27.80;99.90
8465;DHT22;4269;52.458;13.430;2023-07-20T11:26:42;27.90;99.90
8465;DHT22;4269;52.458;13.430;2023-07-20T11:29:09;27.90;99.90
8465;DHT22;4269;52.458;13.430;2023-07-20T11:31:38;27.90;99.90
8465;DHT22;4269;52.458;13.430;2023-07-20T11:34:05;28.40;99.90
8465;DHT22;4269;52.458;13.430;2023-07-20T11:36:32;27.80;99.90
8465;DHT22;4269;52.458;13.430;2023-07-20T11:38:59;27.90;99.90
8465;DHT22;4269;52.458;13.430;2023-07-20T11:41:27;27.90;99.90
8465;DHT22;4269;52.458;13.430;2023-07-20T11:43:54;28.30;99.90
8465;DHT22;4269;52.458;13.430;2023-07-20T11:46:21;28.20;99.90
8465;DHT22;4269;52.458;13.430;2023-07-20T11:48:48;27.90;99.90
8465;DHT22;4269;52.458;13.430;2023-07-20T11:51:15;27.90;99.90
8465;DHT22;4269;52.458;13.430;2023-07-20T11:53:43;27.90;99.90
8465;DHT22;4269;52.458;13.430;2023-07-20T11:56:10;27.90;99.90
8465;DHT22;4269;52.458;13.430;2023-07-20T11:58:44;28.00;99.90
8465;DHT22;4269;52.458;13.430;2023-07-20T12:01:12;28.00;99.90
8465;DHT22;4269;52.458;13.430;2023-07-20T12:03:38;28.00;99.90
8465;DHT22;4269;52.458;13.430;2023-07-20T12:06:08;28.00;99.90
8465;DHT22;4269;52.458;13.430;2023-07-20T12:08:37;28.00;99.90
8465;DHT22;4269;52.458;13.430;2023-07-20T12:11:04;28.30;99.90
8465;DHT22;4269;52.458;13.430;2023-07-20T12:13:36;28.00;99.90
8465;DHT22;4269;52.458;13.430;2023-07-20T12:16:09;27.90;99.90
8465;DHT22;4269;52.458;13.430;2023-07-20T12:21:03;28.00;99.90
8465;DHT22;4269;52.458;13.430;2023-07-20T12:23:35;28.00;99.90
8465;DHT22;4269;52.458;13.430;2023-07-20T12:26:02;28.30;99.90
8465;DHT22;4269;52.458;13.430;2023-07-20T12:30:56;28.10;99.90
8465;DHT22;4269;52.458;13.430;2023-07-20T12:33:24;28.00;99.90
8465;DHT22;4269;52.458;13.430;2023-07-20T12:35:50;28.00;99.90
8465;DHT22;4269;52.458;13.430;2023-07-20T12:38:21;27.90;99.90
8465;DHT22;4269;52.458;13.430;2023-07-20T12:40:47;28.10;99.90
8465;DHT22;4269;52.458;13.430;2023-07-20T12:43:14;28.10;99.90
8465;DHT22;4269;52.458;13.430;2023-07-20T12:45:41;28.00;99.90
8465;DHT22;4269;52.458;13.430;2023-07-20T12:48:07;28.10;99.90
8465;DHT22;4269;52.458;13.430;2023-07-20T12:50:35;28.20;99.90
8465;DHT22;4269;52.458;13.430;2023-07-20T12:53:02;28.00;99.90
8465;DHT22;4269;52.458;13.430;2023-07-20T12:55:29;28.10;99.90
8465;DHT22;4269;52.458;13.430;2023-07-20T12:57:56;28.10;99.90
8465;DHT22;4269;52.458;13.430;2023-07-20T13:00:23;28.10;99.90
8465;DHT22;4269;52.458;13.430;2023-07-20T13:02:49;30.00;99.90
8465;DHT22;4269;52.458;13.430;2023-07-20T13:05:16;28.10;99.90
8465;DHT22;4269;52.458;13.430;2023-07-20T13:07:44;28.10;99.90
8465;DHT22;4269;52.458;13.430;2023-07-20T13:10:11;28.20;99.90
8465;DHT22;4269;52.458;13.430;2023-07-20T13:12:38;28.00;99.90
8465;DHT22;4269;52.458;13.430;2023-07-20T13:15:06;27.40;99.90
8465;DHT22;4269;52.458;13.430;2023-07-20T13:20:01;28.20;99.90
8465;DHT22;4269;52.458;13.430;2023-07-20T13:24:58;28.20;99.90
8465;DHT22;4269;52.458;13.430;2023-07-20T13:27:24;28.20;99.90
8465;DHT22;4269;52.458;13.430;2023-07-20T13:29:52;28.30;99.90
8465;DHT22;4269;52.458;13.430;2023-07-20T13:32:19;28.30;99.90
8465;DHT22;4269;52.458;13.430;2023-07-20T13:34:45;28.30;99.90
8465;DHT22;4269;52.458;13.430;2023-07-20T13:37:12;28.30;99.90
8465;DHT22;4269;52.458;13.430;2023-07-20T13:39:39;27.50;99.90
8465;DHT22;4269;52.458;13.430;2023-07-20T13:42:07;28.30;99.90
8465;DHT22;4269;52.458;13.430;2023-07-20T13:44:34;28.40;99.90
8465;DHT22;4269;52.458;13.430;2023-07-20T13:47:01;28.50;99.90
8465;DHT22;4269;52.458;13.430;2023-07-20T13:49:28;28.50;99.90
8465;DHT22;4269;52.458;13.430;2023-07-20T13:51:55;28.40;99.90
8465;DHT22;4269;52.458;13.430;2023-07-20T13:54:22;28.40;99.90
8465;DHT22;4269;52.458;13.430;2023-07-20T13:56:49;28.80;99.90
8465;DHT22;4269;52.458;13.430;2023-07-20T13:59:17;28.40;99.90
8465;DHT22;4269;52.458;13.430;2023-07-20T14:04:11;28.30;99.90
8465;DHT22;4269;52.458;13.430;2023-07-20T14:06:37;28.30;99.90
8465;DHT22;4269;52.458;13.430;2023-07-20T14:09:04;28.30;99.90
8465;DHT22;4269;52.458;13.430;2023-07-20T14:11:31;28.40;99.90
8465;DHT22;4269;52.458;13.430;2023-07-20T14:13:57;28.40;99.90
8465;DHT22;4269;52.458;13.430;2023-07-20T14:16:25;28.50;99.90
8465;DHT22;4269;52.458;13.430;2023-07-20T14:18:52;28.50;99.90
8465;DHT22;4269;52.458;13.430;2023-07-20T14:21:19;28.70;99.90
8465;DHT22;4269;52.458;13.430;2023-07-20T14:23:47;28.70;99.90
8465;DHT22;4269;52.458;13.430;2023-07-20T14:26:13;28.80;99.90
8465;DHT22;4269;52.458;13.430;2023-07-20T14:31:07;28.80;99.90
8465;DHT22;4269;52.458;13.430;2023-07-20T14:33:35;29.60;99.90
8465;DHT22;4269;52.458;13.430;2023-07-20T14:36:02;29.70;99.90
8465;DHT22;4269;52.458;13.430;2023-07-20T14:38:28;29.90;99.90
8465;DHT22;4269;52.458;13.430;2023-07-20T14:40:55;29.80;99.90
8465;DHT22;4269;52.458;13.430;2023-07-20T14:43:21;30.00;99.90
8465;DHT22;4269;52.458;13.430;2023-07-20T14:45:48;30.10;99.90
8465;DHT22;4269;52.458;13.430;2023-07-20T14:48:14;30.10;99.90
8465;DHT22;4269;52.458;13.430;2023-07-20T14:50:42;30.30;99.90
8465;DHT22;4269;52.458;13.430;2023-07-20T14:53:10;30.30;99.90
8465;DHT22;4269;52.458;13.430;2023-07-20T14:55:37;30.20;99.90
8465;DHT22;4269;52.458;13.430;2023-07-20T14:58:04;30.00;99.90
8465;DHT22;4269;52.458;13.430;2023-07-20T15:00:30;29.90;99.90
8465;DHT22;4269;52.458;13.430;2023-07-20T15:02:57;29.70;99.90
8465;DHT22;4269;52.458;13.430;2023-07-20T15:07:53;29.60;99.90
8465;DHT22;4269;52.458;13.430;2023-07-20T15:10:19;29.70;99.90
8465;DHT22;4269;52.458;13.430;2023-07-20T15:15:14;29.50;99.90
8465;DHT22;4269;52.458;13.430;2023-07-20T15:17:43;29.50;99.90
8465;DHT22;4269;52.458;13.430;2023-07-20T15:20:12;29.20;99.90
8465;DHT22;4269;52.458;13.430;2023-07-20T15:22:39;29.20;99.90
8465;DHT22;4269;52.458;13.430;2023-07-20T15:25:09;29.20;99.90
8465;DHT22;4269;52.458;13.430;2023-07-20T15:30:04;31.80;99.90
8465;DHT22;4269;52.458;13.430;2023-07-20T15:32:31;28.80;99.90
8465;DHT22;4269;52.458;13.430;2023-07-20T15:34:58;28.60;99.90
8465;DHT22;4269;52.458;13.430;2023-07-20T15:37:24;28.80;99.90
8465;DHT22;4269;52.458;13.430;2023-07-20T15:42:19;28.70;99.90
8465;DHT22;4269;52.458;13.430;2023-07-20T15:44:47;28.70;99.90
8465;DHT22;4269;52.458;13.430;2023-07-20T15:47:14;28.70;99.90
8465;DHT22;4269;52.458;13.430;2023-07-20T15:49:40;28.80;99.90
8465;DHT22;4269;52.458;13.430;2023-07-20T15:54:34;28.50;99.90
8465;DHT22;4269;52.458;13.430;2023-07-20T15:57:00;28.60;99.90
8465;DHT22;4269;52.458;13.430;2023-07-20T15:59:28;28.70;99.90
8465;DHT22;4269;52.458;13.430;2023-07-20T16:01:56;28.50;99.90
8465;DHT22;4269;52.458;13.430;2023-07-20T16:04:25;28.80;99.90
8465;DHT22;4269;52.458;13.430;2023-07-20T16:06:52;29.00;99.90
8465;DHT22;4269;52.458;13.430;2023-07-20T16:09:22;28.70;99.90
8465;DHT22;4269;52.458;13.430;2023-07-20T16:11:49;29.30;99.90
8465;DHT22;4269;52.458;13.430;2023-07-20T16:14:15;29.40;99.90
8465;DHT22;4269;52.458;13.430;2023-07-20T16:16:43;29.30;99.90
8465;DHT22;4269;52.458;13.430;2023-07-20T16:19:10;29.60;99.90
8465;DHT22;4269;52.458;13.430;2023-07-20T16:21:36;29.70;99.90
8465;DHT22;4269;52.458;13.430;2023-07-20T16:24:03;29.80;99.90
8465;DHT22;4269;52.458;13.430;2023-07-20T16:26:29;29.90;99.90
8465;DHT22;4269;52.458;13.430;2023-07-20T16:28:56;30.20;99.90
8465;DHT22;4269;52.458;13.430;2023-07-20T16:31:23;29.90;99.90
8465;DHT22;4269;52.458;13.430;2023-07-20T16:33:51;29.90;99.90
8465;DHT22;4269;52.458;13.430;2023-07-20T16:36:17;29.40;99.90
8465;DHT22;4269;52.458;13.430;2023-07-20T16:38:44;29.70;99.90
8465;DHT22;4269;52.458;13.430;2023-07-20T16:41:11;29.60;99.90
8465;DHT22;4269;52.458;13.430;2023-07-20T16:43:38;29.50;99.90
8465;DHT22;4269;52.458;13.430;2023-07-20T16:46:06;29.30;99.90
8465;DHT22;4269;52.458;13.430;2023-07-20T16:51:02;29.40;99.90
8465;DHT22;4269;52.458;13.430;2023-07-20T16:53:29;29.40;99.90
8465;DHT22;4269;52.458;13.430;2023-07-20T16:55:56;29.60;99.90
8465;DHT22;4269;52.458;13.430;2023-07-20T16:58:24;29.60;99.90